Bouton, Iowa
Current Conditions -  °F | °C
As of 12:35 AM on Saturday 25 Oct 2014 (Local Time) from KPRO Reporting Station
Clear Clear  
Wind Chill: 52°   Ceiling: Unl
Heat Index: 52°   Visibility: 7mi
Dew Point: 50°   Wind: 8mph
Humidity: 94%   Direction: 280°W
Pressure: 29.98"   Gusts: NA
Location:  41.85°N, 94.01°W
Report Text: KPRO 250535Z AUTO 28007KT 7SM CLR 11/10 A2998 RMK AO2 T01090100
Loading
Personal Weather Stations






























Interactive Weather Map
Tropical Storm Tracking
New forecast layout! Learn more

10-Day Weather Forecast

Advertisements
Track Severe Weather on mobile